sensor_id;sensor_type;location;lat;lon;timestamp;P1;durP1;ratioP1;P2;durP2;ratioP2
24425;SDS011;12611;44.446;26.000;2022-12-18T00:00:05;18.83;;;9.00;;
24425;SDS011;12611;44.446;26.000;2022-12-18T00:02:35;16.60;;;8.50;;
24425;SDS011;12611;44.446;26.000;2022-12-18T00:05:04;17.37;;;9.73;;
24425;SDS011;12611;44.446;26.000;2022-12-18T00:07:34;18.13;;;9.67;;
24425;SDS011;12611;44.446;26.000;2022-12-18T00:10:03;21.27;;;9.43;;
24425;SDS011;12611;44.446;26.000;2022-12-18T00:12:32;17.27;;;9.10;;
24425;SDS011;12611;44.446;26.000;2022-12-18T00:15:01;18.07;;;8.90;;
24425;SDS011;12611;44.446;26.000;2022-12-18T00:17:30;21.00;;;9.50;;
24425;SDS011;12611;44.446;26.000;2022-12-18T00:19:58;22.83;;;10.87;;
24425;SDS011;12611;44.446;26.000;2022-12-18T00:22:26;20.87;;;9.70;;
24425;SDS011;12611;44.446;26.000;2022-12-18T00:24:56;19.90;;;9.50;;
24425;SDS011;12611;44.446;26.000;2022-12-18T00:27:24;20.30;;;9.17;;
24425;SDS011;12611;44.446;26.000;2022-12-18T00:29:53;22.30;;;9.83;;
24425;SDS011;12611;44.446;26.000;2022-12-18T00:32:21;17.43;;;9.57;;
24425;SDS011;12611;44.446;26.000;2022-12-18T00:34:49;21.83;;;10.50;;
24425;SDS011;12611;44.446;26.000;2022-12-18T00:37:17;20.93;;;9.87;;
24425;SDS011;12611;44.446;26.000;2022-12-18T00:39:47;19.73;;;9.63;;
24425;SDS011;12611;44.446;26.000;2022-12-18T00:42:18;20.43;;;9.57;;
24425;SDS011;12611;44.446;26.000;2022-12-18T00:45:04;19.80;;;9.87;;
24425;SDS011;12611;44.446;26.000;2022-12-18T00:47:38;22.47;;;9.53;;
24425;SDS011;12611;44.446;26.000;2022-12-18T00:50:07;19.57;;;9.93;;
24425;SDS011;12611;44.446;26.000;2022-12-18T00:52:45;20.73;;;10.97;;
24425;SDS011;12611;44.446;26.000;2022-12-18T00:55:13;22.33;;;10.43;;
24425;SDS011;12611;44.446;26.000;2022-12-18T00:57:43;24.93;;;10.33;;
24425;SDS011;12611;44.446;26.000;2022-12-18T01:00:12;18.77;;;9.73;;
24425;SDS011;12611;44.446;26.000;2022-12-18T01:02:42;19.27;;;9.83;;
24425;SDS011;12611;44.446;26.000;2022-12-18T01:05:11;23.83;;;10.47;;
24425;SDS011;12611;44.446;26.000;2022-12-18T01:07:40;24.40;;;9.97;;
24425;SDS011;12611;44.446;26.000;2022-12-18T01:10:10;19.73;;;9.47;;
24425;SDS011;12611;44.446;26.000;2022-12-18T01:12:40;22.97;;;11.00;;
24425;SDS011;12611;44.446;26.000;2022-12-18T01:15:10;20.80;;;10.47;;
24425;SDS011;12611;44.446;26.000;2022-12-18T01:17:40;20.47;;;9.90;;
24425;SDS011;12611;44.446;26.000;2022-12-18T01:20:09;21.07;;;10.73;;
24425;SDS011;12611;44.446;26.000;2022-12-18T01:22:38;19.53;;;10.13;;
24425;SDS011;12611;44.446;26.000;2022-12-18T01:25:07;23.33;;;10.40;;
24425;SDS011;12611;44.446;26.000;2022-12-18T01:27:36;23.50;;;11.67;;
24425;SDS011;12611;44.446;26.000;2022-12-18T01:30:05;25.37;;;10.80;;
24425;SDS011;12611;44.446;26.000;2022-12-18T01:32:35;24.30;;;11.37;;
24425;SDS011;12611;44.446;26.000;2022-12-18T01:35:04;24.13;;;10.50;;
24425;SDS011;12611;44.446;26.000;2022-12-18T01:37:33;22.83;;;10.43;;
24425;SDS011;12611;44.446;26.000;2022-12-18T01:40:02;23.93;;;11.37;;
24425;SDS011;12611;44.446;26.000;2022-12-18T01:42:30;25.07;;;11.03;;
24425;SDS011;12611;44.446;26.000;2022-12-18T01:45:00;24.57;;;11.13;;
24425;SDS011;12611;44.446;26.000;2022-12-18T01:47:36;25.87;;;12.10;;
24425;SDS011;12611;44.446;26.000;2022-12-18T01:50:08;26.53;;;11.43;;
24425;SDS011;12611;44.446;26.000;2022-12-18T01:52:42;26.23;;;12.13;;
24425;SDS011;12611;44.446;26.000;2022-12-18T01:55:12;24.67;;;12.00;;
24425;SDS011;12611;44.446;26.000;2022-12-18T01:57:44;24.87;;;11.13;;
24425;SDS011;12611;44.446;26.000;2022-12-18T02:00:13;22.70;;;10.73;;
24425;SDS011;12611;44.446;26.000;2022-12-18T02:02:45;24.63;;;10.67;;
24425;SDS011;12611;44.446;26.000;2022-12-18T02:05:15;22.10;;;11.23;;
24425;SDS011;12611;44.446;26.000;2022-12-18T02:07:49;24.50;;;12.07;;
24425;SDS011;12611;44.446;26.000;2022-12-18T02:10:33;22.63;;;11.63;;
24425;SDS011;12611;44.446;26.000;2022-12-18T02:13:11;24.83;;;12.03;;
24425;SDS011;12611;44.446;26.000;2022-12-18T02:15:44;26.03;;;12.33;;
24425;SDS011;12611;44.446;26.000;2022-12-18T02:18:20;25.37;;;12.30;;
24425;SDS011;12611;44.446;26.000;2022-12-18T02:20:53;28.37;;;11.80;;
24425;SDS011;12611;44.446;26.000;2022-12-18T02:23:31;27.33;;;11.73;;
24425;SDS011;12611;44.446;26.000;2022-12-18T02:26:15;26.90;;;11.63;;
24425;SDS011;12611;44.446;26.000;2022-12-18T02:28:51;24.47;;;12.10;;
24425;SDS011;12611;44.446;26.000;2022-12-18T02:31:23;23.83;;;11.00;;
24425;SDS011;12611;44.446;26.000;2022-12-18T02:33:56;33.10;;;12.97;;
24425;SDS011;12611;44.446;26.000;2022-12-18T02:36:29;25.47;;;12.43;;
24425;SDS011;12611;44.446;26.000;2022-12-18T02:39:00;29.23;;;12.10;;
24425;SDS011;12611;44.446;26.000;2022-12-18T02:41:31;31.07;;;13.43;;
24425;SDS011;12611;44.446;26.000;2022-12-18T02:44:01;27.80;;;13.50;;
24425;SDS011;12611;44.446;26.000;2022-12-18T02:46:35;27.10;;;12.47;;
24425;SDS011;12611;44.446;26.000;2022-12-18T02:49:11;27.63;;;13.37;;
24425;SDS011;12611;44.446;26.000;2022-12-18T02:51:50;29.93;;;12.63;;
24425;SDS011;12611;44.446;26.000;2022-12-18T02:54:23;27.50;;;13.13;;
24425;SDS011;12611;44.446;26.000;2022-12-18T02:57:08;31.80;;;14.00;;
24425;SDS011;12611;44.446;26.000;2022-12-18T02:59:45;29.43;;;13.63;;
24425;SDS011;12611;44.446;26.000;2022-12-18T03:02:21;27.63;;;12.27;;
24425;SDS011;12611;44.446;26.000;2022-12-18T03:04:55;27.57;;;12.07;;
24425;SDS011;12611;44.446;26.000;2022-12-18T03:07:33;28.03;;;12.37;;
24425;SDS011;12611;44.446;26.000;2022-12-18T03:10:05;31.13;;;14.60;;
24425;SDS011;12611;44.446;26.000;2022-12-18T03:12:38;28.83;;;13.50;;
24425;SDS011;12611;44.446;26.000;2022-12-18T03:15:13;30.43;;;14.50;;
24425;SDS011;12611;44.446;26.000;2022-12-18T03:17:46;31.60;;;14.87;;
24425;SDS011;12611;44.446;26.000;2022-12-18T03:20:19;30.63;;;14.13;;
24425;SDS011;12611;44.446;26.000;2022-12-18T03:22:50;29.63;;;13.73;;
24425;SDS011;12611;44.446;26.000;2022-12-18T03:25:22;30.97;;;14.67;;
24425;SDS011;12611;44.446;26.000;2022-12-18T03:27:56;31.10;;;13.63;;
24425;SDS011;12611;44.446;26.000;2022-12-18T03:30:27;27.10;;;13.13;;
24425;SDS011;12611;44.446;26.000;2022-12-18T03:32:58;29.33;;;13.53;;
24425;SDS011;12611;44.446;26.000;2022-12-18T03:35:31;31.10;;;13.90;;
24425;SDS011;12611;44.446;26.000;2022-12-18T03:38:06;27.33;;;12.50;;
24425;SDS011;12611;44.446;26.000;2022-12-18T03:40:35;29.53;;;14.07;;
24425;SDS011;12611;44.446;26.000;2022-12-18T03:43:15;30.33;;;14.30;;
24425;SDS011;12611;44.446;26.000;2022-12-18T03:45:49;33.77;;;14.67;;
24425;SDS011;12611;44.446;26.000;2022-12-18T03:48:24;31.77;;;15.68;;
24425;SDS011;12611;44.446;26.000;2022-12-18T03:50:58;31.53;;;13.37;;
24425;SDS011;12611;44.446;26.000;2022-12-18T03:53:32;29.97;;;13.57;;
24425;SDS011;12611;44.446;26.000;2022-12-18T03:56:08;33.53;;;14.73;;
24425;SDS011;12611;44.446;26.000;2022-12-18T03:58:39;33.10;;;13.70;;
24425;SDS011;12611;44.446;26.000;2022-12-18T04:01:10;27.90;;;13.50;;
24425;SDS011;12611;44.446;26.000;2022-12-18T04:03:41;35.67;;;15.95;;
24425;SDS011;12611;44.446;26.000;2022-12-18T04:06:11;33.37;;;14.57;;
24425;SDS011;12611;44.446;26.000;2022-12-18T04:08:41;33.17;;;15.17;;
24425;SDS011;12611;44.446;26.000;2022-12-18T04:11:10;33.60;;;13.43;;
24425;SDS011;12611;44.446;26.000;2022-12-18T04:13:39;35.50;;;14.30;;
24425;SDS011;12611;44.446;26.000;2022-12-18T04:16:10;37.85;;;17.10;;
24425;SDS011;12611;44.446;26.000;2022-12-18T04:18:38;28.67;;;13.37;;
24425;SDS011;12611;44.446;26.000;2022-12-18T04:21:07;30.83;;;14.17;;
24425;SDS011;12611;44.446;26.000;2022-12-18T04:23:35;31.27;;;13.53;;
24425;SDS011;12611;44.446;26.000;2022-12-18T04:26:04;32.93;;;15.13;;
24425;SDS011;12611;44.446;26.000;2022-12-18T04:28:32;32.83;;;13.83;;
24425;SDS011;12611;44.446;26.000;2022-12-18T04:31:02;28.70;;;13.23;;
24425;SDS011;12611;44.446;26.000;2022-12-18T04:33:31;30.67;;;13.97;;
24425;SDS011;12611;44.446;26.000;2022-12-18T04:35:59;31.27;;;13.83;;
24425;SDS011;12611;44.446;26.000;2022-12-18T04:38:27;34.27;;;14.20;;
24425;SDS011;12611;44.446;26.000;2022-12-18T04:40:56;30.87;;;13.10;;
24425;SDS011;12611;44.446;26.000;2022-12-18T04:43:24;31.63;;;14.03;;
24425;SDS011;12611;44.446;26.000;2022-12-18T04:45:52;28.03;;;13.27;;
24425;SDS011;12611;44.446;26.000;2022-12-18T04:48:22;31.17;;;13.47;;
24425;SDS011;12611;44.446;26.000;2022-12-18T04:50:50;30.43;;;13.97;;
24425;SDS011;12611;44.446;26.000;2022-12-18T04:53:19;28.73;;;14.30;;
24425;SDS011;12611;44.446;26.000;2022-12-18T04:55:47;30.40;;;13.63;;
24425;SDS011;12611;44.446;26.000;2022-12-18T04:58:15;36.93;;;13.80;;
24425;SDS011;12611;44.446;26.000;2022-12-18T05:00:44;32.83;;;14.47;;
24425;SDS011;12611;44.446;26.000;2022-12-18T05:03:12;34.60;;;14.70;;
24425;SDS011;12611;44.446;26.000;2022-12-18T05:05:42;30.33;;;13.63;;
24425;SDS011;12611;44.446;26.000;2022-12-18T05:08:10;32.30;;;13.63;;
24425;SDS011;12611;44.446;26.000;2022-12-18T05:10:38;34.60;;;13.77;;
24425;SDS011;12611;44.446;26.000;2022-12-18T05:13:07;29.93;;;14.43;;
24425;SDS011;12611;44.446;26.000;2022-12-18T05:15:35;35.42;;;15.57;;
24425;SDS011;12611;44.446;26.000;2022-12-18T05:18:03;32.03;;;14.80;;
24425;SDS011;12611;44.446;26.000;2022-12-18T05:20:32;35.23;;;13.83;;
24425;SDS011;12611;44.446;26.000;2022-12-18T05:23:01;31.03;;;14.03;;
24425;SDS011;12611;44.446;26.000;2022-12-18T05:25:29;31.77;;;14.43;;
24425;SDS011;12611;44.446;26.000;2022-12-18T05:27:58;34.90;;;16.08;;
24425;SDS011;12611;44.446;26.000;2022-12-18T05:30:26;31.57;;;14.60;;
24425;SDS011;12611;44.446;26.000;2022-12-18T05:32:54;36.20;;;14.90;;
24425;SDS011;12611;44.446;26.000;2022-12-18T05:35:23;29.53;;;13.83;;
24425;SDS011;12611;44.446;26.000;2022-12-18T05:37:51;32.47;;;14.90;;
24425;SDS011;12611;44.446;26.000;2022-12-18T05:40:21;35.87;;;14.77;;
24425;SDS011;12611;44.446;26.000;2022-12-18T05:42:49;32.63;;;14.03;;
24425;SDS011;12611;44.446;26.000;2022-12-18T05:45:17;29.53;;;13.30;;
24425;SDS011;12611;44.446;26.000;2022-12-18T05:47:46;33.60;;;14.73;;
24425;SDS011;12611;44.446;26.000;2022-12-18T05:50:14;37.47;;;14.57;;
24425;SDS011;12611;44.446;26.000;2022-12-18T05:52:43;35.53;;;15.68;;
24425;SDS011;12611;44.446;26.000;2022-12-18T05:55:12;33.87;;;14.13;;
24425;SDS011;12611;44.446;26.000;2022-12-18T05:57:41;31.30;;;14.90;;
24425;SDS011;12611;44.446;26.000;2022-12-18T06:00:10;32.53;;;14.50;;
24425;SDS011;12611;44.446;26.000;2022-12-18T06:02:39;37.30;;;14.30;;
24425;SDS011;12611;44.446;26.000;2022-12-18T06:05:08;39.88;;;16.65;;
24425;SDS011;12611;44.446;26.000;2022-12-18T06:07:37;34.90;;;15.50;;
24425;SDS011;12611;44.446;26.000;2022-12-18T06:10:05;29.77;;;15.10;;
24425;SDS011;12611;44.446;26.000;2022-12-18T06:12:34;33.73;;;14.27;;
24425;SDS011;12611;44.446;26.000;2022-12-18T06:15:04;35.40;;;14.43;;
24425;SDS011;12611;44.446;26.000;2022-12-18T06:17:33;36.80;;;16.03;;
24425;SDS011;12611;44.446;26.000;2022-12-18T06:20:02;40.63;;;17.10;;
24425;SDS011;12611;44.446;26.000;2022-12-18T06:22:32;42.17;;;16.50;;
24425;SDS011;12611;44.446;26.000;2022-12-18T06:25:01;44.07;;;17.07;;
24425;SDS011;12611;44.446;26.000;2022-12-18T06:27:29;36.50;;;15.50;;
24425;SDS011;12611;44.446;26.000;2022-12-18T06:29:58;42.93;;;17.07;;
24425;SDS011;12611;44.446;26.000;2022-12-18T06:32:27;38.77;;;17.20;;
24425;SDS011;12611;44.446;26.000;2022-12-18T06:34:56;37.03;;;15.37;;
24425;SDS011;12611;44.446;26.000;2022-12-18T06:37:24;35.43;;;15.47;;
24425;SDS011;12611;44.446;26.000;2022-12-18T06:39:53;35.13;;;15.77;;
24425;SDS011;12611;44.446;26.000;2022-12-18T06:42:22;39.10;;;17.20;;
24425;SDS011;12611;44.446;26.000;2022-12-18T06:44:54;43.07;;;17.80;;
24425;SDS011;12611;44.446;26.000;2022-12-18T06:47:22;36.93;;;16.53;;
24425;SDS011;12611;44.446;26.000;2022-12-18T06:49:52;36.83;;;16.17;;
24425;SDS011;12611;44.446;26.000;2022-12-18T06:52:21;41.10;;;16.17;;
24425;SDS011;12611;44.446;26.000;2022-12-18T06:54:49;34.03;;;16.07;;
24425;SDS011;12611;44.446;26.000;2022-12-18T06:57:17;38.93;;;16.30;;
24425;SDS011;12611;44.446;26.000;2022-12-18T06:59:46;39.83;;;17.27;;
24425;SDS011;12611;44.446;26.000;2022-12-18T07:02:14;44.30;;;16.27;;
24425;SDS011;12611;44.446;26.000;2022-12-18T07:04:42;40.73;;;16.20;;
24425;SDS011;12611;44.446;26.000;2022-12-18T07:07:12;37.80;;;16.03;;
24425;SDS011;12611;44.446;26.000;2022-12-18T07:09:40;40.35;;;18.00;;
24425;SDS011;12611;44.446;26.000;2022-12-18T07:12:09;40.03;;;17.73;;
24425;SDS011;12611;44.446;26.000;2022-12-18T07:14:37;35.37;;;16.37;;
24425;SDS011;12611;44.446;26.000;2022-12-18T07:17:05;39.07;;;16.93;;
24425;SDS011;12611;44.446;26.000;2022-12-18T07:19:34;36.57;;;17.03;;
24425;SDS011;12611;44.446;26.000;2022-12-18T07:22:03;40.00;;;17.50;;
24425;SDS011;12611;44.446;26.000;2022-12-18T07:24:33;39.97;;;17.73;;
24425;SDS011;12611;44.446;26.000;2022-12-18T07:27:01;39.43;;;17.63;;
24425;SDS011;12611;44.446;26.000;2022-12-18T07:29:33;40.00;;;16.83;;
24425;SDS011;12611;44.446;26.000;2022-12-18T07:32:01;36.60;;;17.07;;
24425;SDS011;12611;44.446;26.000;2022-12-18T07:34:29;43.53;;;19.42;;
24425;SDS011;12611;44.446;26.000;2022-12-18T07:36:58;36.70;;;16.73;;
24425;SDS011;12611;44.446;26.000;2022-12-18T07:39:26;35.77;;;17.10;;
24425;SDS011;12611;44.446;26.000;2022-12-18T07:41:56;37.47;;;17.10;;
24425;SDS011;12611;44.446;26.000;2022-12-18T07:44:42;35.13;;;16.00;;
24425;SDS011;12611;44.446;26.000;2022-12-18T07:47:10;35.93;;;17.30;;
24425;SDS011;12611;44.446;26.000;2022-12-18T07:49:38;36.80;;;16.23;;
24425;SDS011;12611;44.446;26.000;2022-12-18T07:52:06;33.97;;;16.03;;
24425;SDS011;12611;44.446;26.000;2022-12-18T07:54:35;34.83;;;16.20;;
24425;SDS011;12611;44.446;26.000;2022-12-18T07:57:05;33.47;;;16.70;;
24425;SDS011;12611;44.446;26.000;2022-12-18T07:59:53;40.73;;;17.57;;
24425;SDS011;12611;44.446;26.000;2022-12-18T08:02:22;42.80;;;18.70;;
24425;SDS011;12611;44.446;26.000;2022-12-18T08:04:50;36.40;;;17.97;;
24425;SDS011;12611;44.446;26.000;2022-12-18T08:07:18;44.73;;;19.00;;
24425;SDS011;12611;44.446;26.000;2022-12-18T08:09:47;43.70;;;20.27;;
24425;SDS011;12611;44.446;26.000;2022-12-18T08:12:16;41.60;;;18.00;;
24425;SDS011;12611;44.446;26.000;2022-12-18T08:14:45;40.87;;;18.07;;
24425;SDS011;12611;44.446;26.000;2022-12-18T08:17:13;37.70;;;17.43;;
24425;SDS011;12611;44.446;26.000;2022-12-18T08:19:41;38.60;;;17.77;;
24425;SDS011;12611;44.446;26.000;2022-12-18T08:22:10;37.53;;;17.97;;
24425;SDS011;12611;44.446;26.000;2022-12-18T08:24:38;35.27;;;16.40;;
24425;SDS011;12611;44.446;26.000;2022-12-18T08:27:06;39.07;;;20.47;;
24425;SDS011;12611;44.446;26.000;2022-12-18T08:29:56;33.63;;;16.20;;
24425;SDS011;12611;44.446;26.000;2022-12-18T08:32:25;31.60;;;15.47;;
24425;SDS011;12611;44.446;26.000;2022-12-18T08:34:54;33.10;;;16.30;;
24425;SDS011;12611;44.446;26.000;2022-12-18T08:37:22;31.53;;;14.57;;
24425;SDS011;12611;44.446;26.000;2022-12-18T08:39:51;35.63;;;17.50;;
24425;SDS011;12611;44.446;26.000;2022-12-18T08:42:19;36.70;;;16.63;;
24425;SDS011;12611;44.446;26.000;2022-12-18T08:45:06;33.90;;;16.47;;
24425;SDS011;12611;44.446;26.000;2022-12-18T08:47:35;33.63;;;16.33;;
24425;SDS011;12611;44.446;26.000;2022-12-18T08:50:04;36.13;;;17.13;;
24425;SDS011;12611;44.446;26.000;2022-12-18T08:52:33;35.27;;;17.30;;
24425;SDS011;12611;44.446;26.000;2022-12-18T08:55:01;32.90;;;15.50;;
24425;SDS011;12611;44.446;26.000;2022-12-18T08:57:30;31.13;;;14.53;;
24425;SDS011;12611;44.446;26.000;2022-12-18T08:59:58;33.43;;;16.83;;
24425;SDS011;12611;44.446;26.000;2022-12-18T09:02:28;32.57;;;15.67;;
24425;SDS011;12611;44.446;26.000;2022-12-18T09:04:56;32.90;;;15.73;;
24425;SDS011;12611;44.446;26.000;2022-12-18T09:07:25;31.77;;;14.70;;
24425;SDS011;12611;44.446;26.000;2022-12-18T09:09:53;29.53;;;14.17;;
24425;SDS011;12611;44.446;26.000;2022-12-18T09:12:21;30.60;;;14.00;;
24425;SDS011;12611;44.446;26.000;2022-12-18T09:14:52;27.47;;;12.77;;
24425;SDS011;12611;44.446;26.000;2022-12-18T09:17:21;25.73;;;13.47;;
24425;SDS011;12611;44.446;26.000;2022-12-18T09:19:50;26.73;;;12.83;;
24425;SDS011;12611;44.446;26.000;2022-12-18T09:22:19;26.27;;;12.95;;
24425;SDS011;12611;44.446;26.000;2022-12-18T09:24:48;23.27;;;11.70;;
24425;SDS011;12611;44.446;26.000;2022-12-18T09:27:16;24.90;;;12.10;;
24425;SDS011;12611;44.446;26.000;2022-12-18T09:29:45;26.00;;;11.33;;
24425;SDS011;12611;44.446;26.000;2022-12-18T09:32:14;26.07;;;12.03;;
24425;SDS011;12611;44.446;26.000;2022-12-18T09:34:47;24.03;;;11.97;;
24425;SDS011;12611;44.446;26.000;2022-12-18T09:37:17;24.33;;;12.43;;
24425;SDS011;12611;44.446;26.000;2022-12-18T09:39:45;22.10;;;11.83;;
24425;SDS011;12611;44.446;26.000;2022-12-18T09:42:16;20.43;;;10.57;;
24425;SDS011;12611;44.446;26.000;2022-12-18T09:44:49;25.47;;;10.43;;
24425;SDS011;12611;44.446;26.000;2022-12-18T09:47:19;19.27;;;10.10;;
24425;SDS011;12611;44.446;26.000;2022-12-18T09:49:52;19.00;;;9.27;;
24425;SDS011;12611;44.446;26.000;2022-12-18T09:52:26;18.23;;;8.87;;
24425;SDS011;12611;44.446;26.000;2022-12-18T09:54:58;16.43;;;8.70;;
24425;SDS011;12611;44.446;26.000;2022-12-18T09:57:32;18.23;;;9.27;;
24425;SDS011;12611;44.446;26.000;2022-12-18T10:00:06;18.50;;;9.53;;
24425;SDS011;12611;44.446;26.000;2022-12-18T10:02:42;17.67;;;9.63;;
24425;SDS011;12611;44.446;26.000;2022-12-18T10:05:11;17.23;;;8.80;;
24425;SDS011;12611;44.446;26.000;2022-12-18T10:07:46;19.63;;;9.67;;
24425;SDS011;12611;44.446;26.000;2022-12-18T10:10:23;17.53;;;9.20;;
24425;SDS011;12611;44.446;26.000;2022-12-18T10:13:07;19.90;;;10.07;;
24425;SDS011;12611;44.446;26.000;2022-12-18T10:15:45;20.33;;;9.50;;
24425;SDS011;12611;44.446;26.000;2022-12-18T10:18:35;16.77;;;9.00;;
24425;SDS011;12611;44.446;26.000;2022-12-18T10:21:29;21.03;;;9.43;;
24425;SDS011;12611;44.446;26.000;2022-12-18T10:24:08;19.10;;;10.63;;
24425;SDS011;12611;44.446;26.000;2022-12-18T10:26:44;17.87;;;9.97;;
24425;SDS011;12611;44.446;26.000;2022-12-18T10:29:14;20.23;;;9.63;;
24425;SDS011;12611;44.446;26.000;2022-12-18T10:31:43;18.83;;;10.27;;
24425;SDS011;12611;44.446;26.000;2022-12-18T10:34:15;20.37;;;10.80;;
24425;SDS011;12611;44.446;26.000;2022-12-18T10:36:43;21.57;;;11.17;;
24425;SDS011;12611;44.446;26.000;2022-12-18T10:39:17;25.47;;;11.77;;
24425;SDS011;12611;44.446;26.000;2022-12-18T10:41:51;23.63;;;11.73;;
24425;SDS011;12611;44.446;26.000;2022-12-18T10:44:26;26.23;;;12.53;;
24425;SDS011;12611;44.446;26.000;2022-12-18T10:47:02;23.65;;;13.18;;
24425;SDS011;12611;44.446;26.000;2022-12-18T10:49:37;23.30;;;12.43;;
24425;SDS011;12611;44.446;26.000;2022-12-18T10:52:14;21.53;;;11.57;;
24425;SDS011;12611;44.446;26.000;2022-12-18T10:54:48;20.67;;;11.07;;
24425;SDS011;12611;44.446;26.000;2022-12-18T10:57:32;23.40;;;11.27;;
24425;SDS011;12611;44.446;26.000;2022-12-18T11:02:52;23.40;;;12.00;;
24425;SDS011;12611;44.446;26.000;2022-12-18T11:05:26;25.70;;;12.47;;
24425;SDS011;12611;44.446;26.000;2022-12-18T11:07:57;21.40;;;11.60;;
24425;SDS011;12611;44.446;26.000;2022-12-18T11:10:28;28.40;;;10.47;;
24425;SDS011;12611;44.446;26.000;2022-12-18T11:13:09;23.20;;;11.90;;
24425;SDS011;12611;44.446;26.000;2022-12-18T11:15:39;20.93;;;10.30;;
24425;SDS011;12611;44.446;26.000;2022-12-18T11:18:15;20.67;;;10.30;;
24425;SDS011;12611;44.446;26.000;2022-12-18T11:20:52;24.93;;;11.23;;
24425;SDS011;12611;44.446;26.000;2022-12-18T11:23:24;21.37;;;10.10;;
24425;SDS011;12611;44.446;26.000;2022-12-18T11:25:56;24.92;;;12.82;;
24425;SDS011;12611;44.446;26.000;2022-12-18T11:28:28;24.03;;;12.63;;
24425;SDS011;12611;44.446;26.000;2022-12-18T11:33:59;26.07;;;11.87;;
24425;SDS011;12611;44.446;26.000;2022-12-18T11:36:50;20.97;;;10.73;;
24425;SDS011;12611;44.446;26.000;2022-12-18T11:39:20;25.40;;;12.30;;
24425;SDS011;12611;44.446;26.000;2022-12-18T11:41:57;26.40;;;11.90;;
24425;SDS011;12611;44.446;26.000;2022-12-18T11:44:41;23.50;;;11.80;;
24425;SDS011;12611;44.446;26.000;2022-12-18T11:47:15;24.00;;;11.10;;
24425;SDS011;12611;44.446;26.000;2022-12-18T11:49:51;26.27;;;12.87;;
24425;SDS011;12611;44.446;26.000;2022-12-18T11:52:23;26.37;;;11.87;;
24425;SDS011;12611;44.446;26.000;2022-12-18T11:54:54;22.03;;;10.97;;
24425;SDS011;12611;44.446;26.000;2022-12-18T11:57:30;24.93;;;10.80;;
24425;SDS011;12611;44.446;26.000;2022-12-18T12:00:10;29.20;;;11.37;;
24425;SDS011;12611;44.446;26.000;2022-12-18T12:02:45;24.88;;;12.60;;
24425;SDS011;12611;44.446;26.000;2022-12-18T12:05:30;23.93;;;11.97;;
24425;SDS011;12611;44.446;26.000;2022-12-18T12:08:11;22.33;;;11.20;;
24425;SDS011;12611;44.446;26.000;2022-12-18T12:10:49;21.63;;;11.77;;
24425;SDS011;12611;44.446;26.000;2022-12-18T12:13:28;26.77;;;12.80;;
24425;SDS011;12611;44.446;26.000;2022-12-18T12:16:11;28.90;;;14.23;;
24425;SDS011;12611;44.446;26.000;2022-12-18T12:18:51;24.50;;;12.03;;
24425;SDS011;12611;44.446;26.000;2022-12-18T12:21:35;23.43;;;11.97;;
24425;SDS011;12611;44.446;26.000;2022-12-18T12:24:14;24.37;;;11.30;;
24425;SDS011;12611;44.446;26.000;2022-12-18T12:26:56;22.13;;;11.33;;
24425;SDS011;12611;44.446;26.000;2022-12-18T12:29:38;22.93;;;11.73;;
24425;SDS011;12611;44.446;26.000;2022-12-18T12:32:20;22.20;;;11.27;;
24425;SDS011;12611;44.446;26.000;2022-12-18T12:34:59;24.70;;;11.97;;
24425;SDS011;12611;44.446;26.000;2022-12-18T12:37:39;22.70;;;11.30;;
24425;SDS011;12611;44.446;26.000;2022-12-18T12:40:20;23.03;;;12.30;;
24425;SDS011;12611;44.446;26.000;2022-12-18T12:43:19;25.73;;;11.17;;
24425;SDS011;12611;44.446;26.000;2022-12-18T12:45:54;28.57;;;12.40;;
24425;SDS011;12611;44.446;26.000;2022-12-18T12:48:32;25.10;;;11.60;;
24425;SDS011;12611;44.446;26.000;2022-12-18T12:51:08;27.83;;;12.93;;
24425;SDS011;12611;44.446;26.000;2022-12-18T12:53:40;22.57;;;12.57;;
24425;SDS011;12611;44.446;26.000;2022-12-18T12:56:10;23.83;;;11.57;;
24425;SDS011;12611;44.446;26.000;2022-12-18T12:58:45;26.20;;;12.00;;
24425;SDS011;12611;44.446;26.000;2022-12-18T13:01:28;23.23;;;11.73;;
24425;SDS011;12611;44.446;26.000;2022-12-18T13:04:03;27.00;;;12.03;;
24425;SDS011;12611;44.446;26.000;2022-12-18T13:06:47;23.10;;;11.50;;
24425;SDS011;12611;44.446;26.000;2022-12-18T13:09:22;29.20;;;13.43;;
24425;SDS011;12611;44.446;26.000;2022-12-18T13:11:50;29.00;;;12.13;;
24425;SDS011;12611;44.446;26.000;2022-12-18T13:14:36;23.90;;;12.10;;
24425;SDS011;12611;44.446;26.000;2022-12-18T13:17:22;26.17;;;11.30;;
24425;SDS011;12611;44.446;26.000;2022-12-18T13:20:03;26.13;;;11.43;;
24425;SDS011;12611;44.446;26.000;2022-12-18T13:22:38;29.00;;;11.67;;
24425;SDS011;12611;44.446;26.000;2022-12-18T13:25:28;26.00;;;12.83;;
24425;SDS011;12611;44.446;26.000;2022-12-18T13:28:06;24.57;;;11.33;;
24425;SDS011;12611;44.446;26.000;2022-12-18T13:30:43;23.70;;;11.60;;
24425;SDS011;12611;44.446;26.000;2022-12-18T13:36:36;27.23;;;14.43;;
24425;SDS011;12611;44.446;26.000;2022-12-18T13:45:36;25.43;;;13.00;;
24425;SDS011;12611;44.446;26.000;2022-12-18T13:51:01;31.87;;;13.37;;
24425;SDS011;12611;44.446;26.000;2022-12-18T13:53:36;26.47;;;12.63;;
24425;SDS011;12611;44.446;26.000;2022-12-18T13:56:09;35.13;;;13.97;;
24425;SDS011;12611;44.446;26.000;2022-12-18T13:58:47;29.55;;;13.55;;
24425;SDS011;12611;44.446;26.000;2022-12-18T14:01:42;24.73;;;12.23;;
24425;SDS011;12611;44.446;26.000;2022-12-18T14:04:18;26.80;;;12.97;;
24425;SDS011;12611;44.446;26.000;2022-12-18T14:06:50;28.73;;;13.67;;
24425;SDS011;12611;44.446;26.000;2022-12-18T14:09:21;30.23;;;13.30;;
24425;SDS011;12611;44.446;26.000;2022-12-18T14:11:53;30.98;;;15.98;;
24425;SDS011;12611;44.446;26.000;2022-12-18T14:14:44;31.10;;;14.10;;
24425;SDS011;12611;44.446;26.000;2022-12-18T14:17:16;34.53;;;13.57;;
24425;SDS011;12611;44.446;26.000;2022-12-18T14:19:47;32.80;;;14.23;;
24425;SDS011;12611;44.446;26.000;2022-12-18T14:22:20;28.27;;;14.10;;
24425;SDS011;12611;44.446;26.000;2022-12-18T14:25:04;29.37;;;13.23;;
24425;SDS011;12611;44.446;26.000;2022-12-18T14:27:42;29.63;;;13.83;;
24425;SDS011;12611;44.446;26.000;2022-12-18T14:30:26;33.30;;;14.27;;
24425;SDS011;12611;44.446;26.000;2022-12-18T14:33:00;32.13;;;14.20;;
24425;SDS011;12611;44.446;26.000;2022-12-18T14:35:30;30.60;;;15.53;;
24425;SDS011;12611;44.446;26.000;2022-12-18T14:38:11;32.73;;;15.60;;
24425;SDS011;12611;44.446;26.000;2022-12-18T14:40:47;28.40;;;13.33;;
24425;SDS011;12611;44.446;26.000;2022-12-18T14:43:20;30.13;;;13.80;;
24425;SDS011;12611;44.446;26.000;2022-12-18T14:45:49;32.17;;;15.33;;
24425;SDS011;12611;44.446;26.000;2022-12-18T14:48:19;27.40;;;13.37;;
24425;SDS011;12611;44.446;26.000;2022-12-18T14:50:57;33.33;;;15.37;;
24425;SDS011;12611;44.446;26.000;2022-12-18T14:53:33;36.73;;;15.63;;
24425;SDS011;12611;44.446;26.000;2022-12-18T14:56:11;28.40;;;13.80;;
24425;SDS011;12611;44.446;26.000;2022-12-18T14:58:46;27.50;;;12.57;;